Time;durP1;ratioP1;P1;durP2;ratioP2;P2;SDS_P1;SDS_P2;PMS_P1;PMS_P2;Temp;Humidity;BMP_temperature;BMP_pressure;BME280_temperature;BME280_humidity;BME280_pressure;Samples;Min_cycle;Max_cycle;Signal;HPM_P1;HPM_P2
2021/12/07 00:00:34;;;;;;;84.80;28.60;;;;;;;-1.84;98.43;99093.09;104462;1304;22751;-24
2021/12/07 00:03:00;;;;;;;82.30;23.90;;;;;;;-1.84;98.75;99094.30;104633;1304;24288;-29
2021/12/07 00:05:26;;;;;;;64.50;23.10;;;;;;;-1.79;99.63;99093.54;104768;1304;24273;-28
2021/12/07 00:07:51;;;;;;;70.30;24.40;;;;;;;-1.89;100.00;99095.41;104463;1303;22464;-29
2021/12/07 00:10:17;;;;;;;55.20;20.50;;;;;;;-1.96;99.98;99100.89;104616;1310;22553;-28
2021/12/07 00:12:45;;;;;;;58.20;19.20;;;;;;;-1.98;100.00;99098.42;104576;1305;24345;-29
2021/12/07 00:15:14;;;;;;;59.10;22.10;;;;;;;-2.03;100.00;99101.61;104583;1304;24141;-28
2021/12/07 00:17:40;;;;;;;58.10;20.00;;;;;;;-1.99;99.97;99103.44;104673;1304;24221;-28
2021/12/07 00:20:08;;;;;;;54.30;18.00;;;;;;;-2.02;99.58;99107.56;104619;1304;22862;-28
2021/12/07 00:22:34;;;;;;;48.50;17.00;;;;;;;-2.10;98.68;99105.02;104714;1302;22795;-29
2021/12/07 00:25:00;;;;;;;40.80;18.60;;;;;;;-2.04;99.13;99101.36;104627;1310;22447;-24
2021/12/07 00:27:26;;;;;;;47.30;19.30;;;;;;;-2.00;98.90;99100.52;104560;1310;22476;-28
2021/12/07 00:29:52;;;;;;;50.10;20.30;;;;;;;-2.05;98.34;99105.18;104894;1304;22561;-30
2021/12/07 00:32:27;;;;;;;54.10;18.40;;;;;;;-2.02;98.38;99102.45;104700;1304;22540;-24
2021/12/07 00:37:23;;;;;;;42.20;18.10;;;;;;;-2.02;97.73;99106.15;104667;1307;22454;-28
2021/12/07 00:39:49;;;;;;;46.10;18.40;;;;;;;-2.00;97.64;99110.48;104423;1307;24314;-25
2021/12/07 00:42:15;;;;;;;46.00;20.10;;;;;;;-1.96;98.00;99109.64;104732;1304;24244;-24
2021/12/07 00:44:41;;;;;;;60.30;21.20;;;;;;;-1.90;97.81;99111.27;104510;1304;22470;-28
2021/12/07 00:47:06;;;;;;;52.20;19.90;;;;;;;-1.79;99.28;99115.81;104452;1303;24221;-28
2021/12/07 00:49:32;;;;;;;49.00;20.50;;;;;;;-1.89;99.91;99115.44;104598;1304;22473;-29
2021/12/07 00:51:58;;;;;;;42.80;19.90;;;;;;;-1.99;100.00;99117.60;104554;1305;22458;-24
2021/12/07 00:54:23;;;;;;;35.10;15.00;;;;;;;-2.04;100.00;99114.86;104764;1304;22694;-24
2021/12/07 00:56:49;;;;;;;44.60;17.70;;;;;;;-2.07;100.00;99117.06;104763;1303;22891;-28
2021/12/07 00:59:15;;;;;;;51.20;19.10;;;;;;;-2.11;100.00;99115.63;104822;1309;22447;-28
2021/12/07 01:01:41;;;;;;;40.40;18.30;;;;;;;-2.09;100.00;99112.48;104582;1310;24180;-24
2021/12/07 01:04:06;;;;;;;37.60;13.80;;;;;;;-2.18;100.00;99108.48;104840;1304;22614;-24
2021/12/07 01:06:45;;;;;;;35.70;15.20;;;;;;;-2.11;100.00;99103.70;104657;1303;22754;-24
2021/12/07 01:09:19;;;;;;;26.50;12.20;;;;;;;-2.13;99.47;99098.59;104514;1307;24157;-29
2021/12/07 01:26:45;;;;;;;38.70;17.10;;;;;;;-2.21;99.98;99106.38;104935;1307;22788;-26
2021/12/07 01:29:11;;;;;;;32.70;15.80;;;;;;;-2.25;99.99;99110.91;104384;1309;24162;-25
2021/12/07 01:34:36;;;;;;;41.50;15.70;;;;;;;-2.34;100.00;99109.38;104455;1307;22473;-29
2021/12/07 02:01:49;;;;;;;45.00;17.10;;;;;;;-2.29;98.17;99090.60;104725;1309;22579;-24
2021/12/07 02:04:14;;;;;;;29.90;14.10;;;;;;;-2.27;98.27;99084.48;104844;1304;24171;-26
2021/12/07 02:06:40;;;;;;;45.70;15.20;;;;;;;-2.28;97.69;99082.26;104695;1304;24153;-28
2021/12/07 02:09:08;;;;;;;44.50;17.80;;;;;;;-2.34;97.45;99075.02;104567;1310;24197;-24
2021/12/07 02:11:34;;;;;;;38.10;15.30;;;;;;;-2.31;97.23;99074.07;104522;1310;22431;-24
2021/12/07 02:16:29;;;;;;;26.40;10.70;;;;;;;-2.32;97.43;99073.61;104815;1304;22807;-26
2021/12/07 02:18:55;;;;;;;25.80;10.60;;;;;;;-2.33;97.48;99077.39;104556;1304;22570;-24
2021/12/07 02:21:25;;;;;;;30.50;13.80;;;;;;;-2.46;96.74;99080.15;104655;1304;24153;-28
2021/12/07 02:23:51;;;;;;;32.50;14.60;;;;;;;-2.41;97.50;99081.67;104764;1300;22476;-28
2021/12/07 02:26:17;;;;;;;30.50;15.10;;;;;;;-2.40;97.94;99082.32;104407;1304;25899;-24
2021/12/07 02:28:44;;;;;;;35.70;14.00;;;;;;;-2.47;97.91;99080.63;104459;1308;439753;-24
2021/12/07 02:31:10;;;;;;;31.40;14.00;;;;;;;-2.43;97.92;99076.08;104703;1303;24271;-28
2021/12/07 02:33:36;;;;;;;30.40;13.70;;;;;;;-2.49;97.83;99070.23;104851;1304;24162;-28
2021/12/07 02:36:03;;;;;;;28.20;14.10;;;;;;;-2.51;97.84;99064.42;104661;1310;22562;-29
2021/12/07 02:38:29;;;;;;;33.70;13.40;;;;;;;-2.54;97.88;99062.05;104551;1304;22775;-24
2021/12/07 02:40:55;;;;;;;43.60;17.20;;;;;;;-2.51;97.82;99061.81;104505;1308;22781;-24
2021/12/07 02:43:20;;;;;;;39.90;14.10;;;;;;;-2.51;97.86;99071.42;104604;1310;24163;-24
2021/12/07 02:45:46;;;;;;;36.90;16.20;;;;;;;-2.43;98.27;99073.84;104752;1304;26071;-24
2021/12/07 02:48:12;;;;;;;35.90;15.40;;;;;;;-2.37;97.91;99076.79;104774;1310;22483;-24
2021/12/07 02:50:38;;;;;;;24.80;12.10;;;;;;;-2.48;97.44;99075.09;104793;1305;22555;-28
2021/12/07 02:53:04;;;;;;;39.20;15.20;;;;;;;-2.48;97.76;99076.62;104397;1309;25940;-27
2021/12/07 02:55:33;;;;;;;30.50;12.10;;;;;;;-2.55;97.22;99077.05;104875;1304;24180;-28
2021/12/07 02:57:59;;;;;;;44.40;13.60;;;;;;;-2.54;97.79;99072.41;104681;1310;24214;-29
2021/12/07 03:00:31;;;;;;;40.70;16.10;;;;;;;-2.47;98.00;99070.46;104669;1303;24150;-28
2021/12/07 03:03:04;;;;;;;30.20;11.30;;;;;;;-2.44;98.22;99070.86;104424;1311;22543;-29
2021/12/07 03:08:23;;;;;;;46.20;18.20;;;;;;;-2.60;97.56;99072.32;104475;1303;22554;-24
2021/12/07 03:28:12;;;;;;;31.70;13.40;;;;;;;-2.69;97.51;99080.63;104847;1304;24153;-24
2021/12/07 03:30:38;;;;;;;33.30;13.30;;;;;;;-2.64;98.01;99077.18;104674;1310;22632;-29
2021/12/07 03:33:04;;;;;;;46.70;15.70;;;;;;;-2.63;97.80;99074.36;105137;1310;22752;-25
2021/12/07 03:35:30;;;;;;;38.80;16.10;;;;;;;-2.63;97.82;99071.54;104682;1308;22592;-28
2021/12/07 03:37:56;;;;;;;41.30;17.20;;;;;;;-2.66;97.86;99068.63;104482;1304;24150;-24
2021/12/07 03:40:22;;;;;;;31.70;14.70;;;;;;;-2.67;98.09;99065.91;104935;1308;22545;-25
2021/12/07 03:42:48;;;;;;;40.00;16.00;;;;;;;-2.73;97.67;99059.86;104848;1304;24237;-30
2021/12/07 03:45:14;;;;;;;26.70;13.20;;;;;;;-2.73;97.90;99061.95;104609;1310;22480;-28
2021/12/07 03:47:40;;;;;;;40.50;16.20;;;;;;;-2.64;98.25;99064.27;104569;1310;24286;-28
2021/12/07 03:50:06;;;;;;;52.80;18.10;;;;;;;-2.63;98.08;99068.21;104718;1309;22793;-28
2021/12/07 03:52:32;;;;;;;42.60;15.30;;;;;;;-2.61;98.50;99068.71;104869;1310;24252;-28
2021/12/07 03:54:58;;;;;;;37.10;14.80;;;;;;;-2.55;98.37;99070.22;104622;1304;24268;-24
2021/12/07 03:57:23;;;;;;;47.30;16.90;;;;;;;-2.55;98.04;99071.77;104366;1312;22477;-28
2021/12/07 03:59:49;;;;;;;44.20;15.30;;;;;;;-2.64;97.91;99072.30;104644;1304;22501;-27
2021/12/07 04:02:15;;;;;;;58.20;16.40;;;;;;;-2.60;98.31;99076.01;104710;1310;24255;-24
2021/12/07 04:04:41;;;;;;;46.40;16.90;;;;;;;-2.52;98.59;99076.46;104668;1309;22452;-25
2021/12/07 04:07:07;;;;;;;38.80;14.70;;;;;;;-2.47;98.37;99076.73;104585;1308;24151;-24
2021/12/07 04:09:32;;;;;;;58.70;19.70;;;;;;;-2.52;98.00;99081.70;104568;1304;22486;-24
2021/12/07 04:11:59;;;;;;;48.00;18.40;;;;;;;-2.51;97.95;99082.16;104671;1304;22511;-26
2021/12/07 04:14:25;;;;;;;62.60;19.50;;;;;;;-2.51;98.23;99081.25;104492;1310;24167;-29
2021/12/07 04:16:51;;;;;;;96.90;24.10;;;;;;;-2.38;98.53;99078.16;104620;1308;22485;-24
2021/12/07 04:19:17;;;;;;;59.10;21.30;;;;;;;-2.35;98.80;99081.77;104443;1311;22593;-24
2021/12/07 04:21:43;;;;;;;55.40;20.10;;;;;;;-2.46;98.98;99083.50;104704;1309;22688;-24
2021/12/07 04:24:09;;;;;;;66.90;20.70;;;;;;;-2.41;99.14;99085.52;104588;1304;22473;-28
2021/12/07 04:26:36;;;;;;;58.40;22.10;;;;;;;-2.44;99.36;99082.83;104286;1304;22447;-28
2021/12/07 04:29:02;;;;;;;52.20;15.20;;;;;;;-2.42;99.50;99078.42;104617;1302;24153;-24
2021/12/07 04:31:29;;;;;;;60.40;19.60;;;;;;;-2.46;99.36;99074.73;104523;1304;24153;-24
2021/12/07 04:33:55;;;;;;;51.80;19.20;;;;;;;-2.43;99.59;99075.05;104542;1304;24157;-24
2021/12/07 04:36:21;;;;;;;47.20;16.60;;;;;;;-2.49;99.33;99077.99;104328;1310;22455;-29
2021/12/07 04:38:47;;;;;;;52.30;18.00;;;;;;;-2.56;99.16;99073.64;104476;1310;22685;-27
2021/12/07 04:41:13;;;;;;;57.00;18.80;;;;;;;-2.51;99.30;99068.66;104708;1304;24213;-24
2021/12/07 04:43:39;;;;;;;40.10;16.10;;;;;;;-2.51;98.77;99064.62;104636;1304;24334;-25
2021/12/07 04:58:50;;;;;;;51.50;18.50;;;;;;;-2.52;99.17;99064.31;104556;1307;23899;-25
2021/12/07 05:01:17;;;;;;;57.40;19.80;;;;;;;-2.53;99.63;99068.44;104467;1310;22687;-28
2021/12/07 05:03:43;;;;;;;48.50;22.10;;;;;;;-2.50;99.60;99071.33;104677;1308;24249;-25
2021/12/07 05:06:11;;;;;;;53.90;19.90;;;;;;;-2.56;99.53;99074.64;104824;1310;22522;-24
2021/12/07 05:08:44;;;;;;;44.40;19.90;;;;;;;-2.63;99.52;99078.52;104315;1310;22640;-24
2021/12/07 05:16:25;;;;;;;56.30;18.80;;;;;;;-2.71;99.76;99082.13;104843;1310;22464;-24
2021/12/07 05:38:46;;;;;;;183.90;57.10;;;;;;;-2.63;99.86;99090.49;104670;1304;22520;-29
2021/12/07 05:41:11;;;;;;;51.40;19.10;;;;;;;-2.55;100.00;99089.17;104481;1309;22729;-29
2021/12/07 05:43:37;;;;;;;71.40;26.60;;;;;;;-2.47;100.00;99092.69;104739;1304;24380;-24
2021/12/07 05:46:03;;;;;;;52.10;18.60;;;;;;;-2.46;100.00;99097.70;104759;1304;24167;-29
2021/12/07 05:48:29;;;;;;;48.10;17.30;;;;;;;-2.46;99.94;99098.39;104921;1310;22483;-29
2021/12/07 05:50:55;;;;;;;57.20;25.00;;;;;;;-2.47;100.00;99099.69;104830;1304;22647;-29
2021/12/07 05:53:20;;;;;;;98.50;37.20;;;;;;;-2.48;99.99;99099.94;104436;1304;22541;-29
2021/12/07 05:55:46;;;;;;;109.50;28.30;;;;;;;-2.47;99.92;99101.45;104923;1304;22531;-28
2021/12/07 05:58:13;;;;;;;168.10;33.50;;;;;;;-2.46;99.98;99096.27;104780;1305;24239;-28
2021/12/07 06:00:42;;;;;;;87.30;30.00;;;;;;;-2.41;100.00;99097.64;104583;1310;22672;-28
2021/12/07 06:03:09;;;;;;;54.80;17.10;;;;;;;-2.40;99.99;99100.36;104669;1304;24163;-24
2021/12/07 06:05:35;;;;;;;67.80;24.10;;;;;;;-2.42;99.92;99101.58;104850;1301;22521;-26
2021/12/07 06:08:03;;;;;;;52.40;20.20;;;;;;;-2.40;99.93;99108.07;104695;1304;23823;-27
2021/12/07 06:10:29;;;;;;;56.90;20.50;;;;;;;-2.41;99.91;99109.91;104636;1305;24160;-28
2021/12/07 06:12:54;;;;;;;264.30;41.70;;;;;;;-2.35;100.00;99111.77;104745;1304;22496;-24
2021/12/07 06:15:22;;;;;;;49.90;17.20;;;;;;;-2.31;99.81;99110.77;104578;1302;22474;-29
2021/12/07 06:17:49;;;;;;;53.60;22.90;;;;;;;-2.31;99.94;99111.09;104597;1310;24153;-28
2021/12/07 06:20:15;;;;;;;63.10;24.00;;;;;;;-2.29;99.89;99111.44;104548;1310;22484;-24
2021/12/07 06:22:41;;;;;;;61.00;25.10;;;;;;;-2.27;99.87;99110.27;104426;1310;22818;-25
2021/12/07 06:25:07;;;;;;;66.80;22.30;;;;;;;-2.28;99.73;99112.23;104615;1304;22451;-29
2021/12/07 06:27:33;;;;;;;64.20;21.80;;;;;;;-2.27;99.59;99113.52;104895;1304;22687;-25
2021/12/07 06:29:59;;;;;;;56.60;17.90;;;;;;;-2.29;99.13;99114.11;104667;1304;22499;-24
2021/12/07 06:32:25;;;;;;;47.50;18.60;;;;;;;-2.31;99.07;99110.92;104518;1308;22480;-24
2021/12/07 06:34:51;;;;;;;50.10;21.60;;;;;;;-2.33;98.69;99110.02;104470;1310;24160;-28
2021/12/07 06:37:17;;;;;;;59.80;20.50;;;;;;;-2.42;98.98;99112.30;104708;1304;24367;-28
2021/12/07 06:39:43;;;;;;;67.20;25.50;;;;;;;-2.44;99.00;99115.95;104571;1304;22444;-28
2021/12/07 06:42:09;;;;;;;62.00;21.50;;;;;;;-2.42;99.13;99121.77;104558;1310;22668;-28
2021/12/07 06:44:35;;;;;;;50.70;18.20;;;;;;;-2.42;99.34;99120.34;104520;1310;22476;-24
2021/12/07 06:47:01;;;;;;;67.60;24.80;;;;;;;-2.38;99.33;99124.19;104262;1307;22594;-28
2021/12/07 06:49:26;;;;;;;82.60;26.00;;;;;;;-2.29;99.53;99126.73;104461;1302;22450;-30
2021/12/07 06:51:52;;;;;;;70.60;28.10;;;;;;;-2.29;99.36;99131.81;104306;1304;24133;-23
2021/12/07 06:54:18;;;;;;;101.30;35.00;;;;;;;-2.29;99.49;99132.70;104574;1304;24299;-28
2021/12/07 06:56:44;;;;;;;89.50;34.00;;;;;;;-2.25;99.57;99135.98;104471;1304;22672;-31
2021/12/07 06:59:10;;;;;;;56.20;19.50;;;;;;;-2.13;99.72;99141.41;104601;1308;24153;-28
2021/12/07 07:01:35;;;;;;;62.70;26.30;;;;;;;-2.18;99.31;99142.29;104638;1304;22517;-25
2021/12/07 07:04:01;;;;;;;64.90;22.30;;;;;;;-2.14;99.59;99145.52;104558;1304;24180;-24
2021/12/07 07:06:27;;;;;;;59.10;22.60;;;;;;;-2.09;99.53;99147.19;104526;1304;22874;-28
2021/12/07 07:08:53;;;;;;;63.70;23.50;;;;;;;-1.96;99.40;99144.91;104600;1301;24187;-25
2021/12/07 07:11:19;;;;;;;55.70;20.80;;;;;;;-1.97;99.05;99144.43;104659;1304;24346;-25
2021/12/07 07:13:46;;;;;;;61.90;25.90;;;;;;;-1.99;98.28;99141.98;104741;1305;22648;-28
2021/12/07 07:16:12;;;;;;;68.50;31.70;;;;;;;-1.85;98.64;99141.60;104639;1304;22571;-23
2021/12/07 07:18:38;;;;;;;94.10;38.60;;;;;;;-1.82;99.08;99137.14;104602;1304;22817;-24
2021/12/07 07:21:04;;;;;;;91.50;28.50;;;;;;;-1.95;98.97;99133.42;104337;1309;22576;-28
2021/12/07 07:23:30;;;;;;;96.00;43.80;;;;;;;-2.06;98.92;99133.27;104444;1304;22570;-24
2021/12/07 07:25:56;;;;;;;84.70;38.20;;;;;;;-2.15;98.12;99136.05;104686;1305;22490;-24
2021/12/07 07:29:01;;;;;;;92.20;31.00;;;;;;;-2.06;98.19;99129.80;104042;1314;545030;-30
2021/12/07 07:31:27;;;;;;;97.90;33.00;;;;;;;-2.11;98.48;99135.25;104396;1315;24362;-30
2021/12/07 07:33:54;;;;;;;83.90;28.80;;;;;;;-2.17;98.58;99138.52;104368;1314;24230;-29
2021/12/07 07:36:22;;;;;;;62.10;22.30;;;;;;;-2.16;98.86;99138.11;104283;1316;24296;-26
2021/12/07 07:38:48;;;;;;;56.40;19.00;;;;;;;-2.08;98.85;99135.70;104336;1314;24212;-26
2021/12/07 07:41:14;;;;;;;40.70;16.70;;;;;;;-2.02;98.46;99142.27;104626;1314;24156;-28
2021/12/07 07:43:39;;;;;;;58.70;20.00;;;;;;;-1.91;98.00;99147.13;104566;1313;281957;-27
2021/12/07 07:46:05;;;;;;;65.60;23.60;;;;;;;-1.79;97.54;99148.14;104717;1312;24286;-26
2021/12/07 07:48:31;;;;;;;63.40;26.10;;;;;;;-1.66;97.91;99155.45;104453;1313;22444;-26
2021/12/07 07:50:57;;;;;;;66.40;28.30;;;;;;;-1.53;97.06;99162.17;104431;1311;22473;-30
2021/12/07 07:53:23;;;;;;;57.50;22.00;;;;;;;-1.51;96.36;99167.26;104775;1311;24199;-29
2021/12/07 07:55:50;;;;;;;62.70;26.20;;;;;;;-1.46;96.71;99162.08;104635;1313;22719;-30
2021/12/07 07:58:16;;;;;;;72.00;23.60;;;;;;;-1.50;95.11;99165.56;104577;1313;22878;-30
2021/12/07 08:00:42;;;;;;;87.70;27.90;;;;;;;-1.44;95.24;99163.45;104715;1312;22438;-26
2021/12/07 08:03:08;;;;;;;119.60;39.80;;;;;;;-1.41;95.01;99164.86;104688;1312;24267;-30
2021/12/07 08:05:34;;;;;;;100.10;37.20;;;;;;;-1.48;94.55;99167.33;104612;1312;22435;-29
2021/12/07 08:08:00;;;;;;;89.10;30.40;;;;;;;-1.46;95.02;99168.37;104758;1313;22533;-30
2021/12/07 08:10:28;;;;;;;81.10;37.60;;;;;;;-1.40;95.18;99165.62;104799;1312;22478;-30
2021/12/07 08:12:56;;;;;;;66.60;25.30;;;;;;;-1.28;95.43;99163.11;104682;1312;22467;-26
2021/12/07 08:15:24;;;;;;;90.40;31.70;;;;;;;-1.13;96.49;99166.75;104651;1311;22784;-26
2021/12/07 08:17:50;;;;;;;113.30;41.50;;;;;;;-1.34;94.52;99169.92;104592;1312;24328;-26
2021/12/07 08:20:15;;;;;;;133.30;40.80;;;;;;;-1.23;95.71;99171.80;104517;1312;22481;-25
2021/12/07 08:22:41;;;;;;;108.00;37.20;;;;;;;-1.36;95.96;99171.30;104532;1311;24180;-28
2021/12/07 08:25:07;;;;;;;171.40;46.90;;;;;;;-1.49;96.13;99173.73;104378;1310;22479;-30
2021/12/07 08:27:33;;;;;;;135.00;39.50;;;;;;;-1.52;96.45;99172.58;104725;1311;22719;-26
2021/12/07 08:29:59;;;;;;;128.70;37.70;;;;;;;-1.45;96.57;99172.33;104600;1313;24244;-29
2021/12/07 08:32:25;;;;;;;150.90;44.20;;;;;;;-1.38;96.21;99175.00;104740;1313;24369;-26
2021/12/07 08:34:51;;;;;;;189.90;44.70;;;;;;;-1.30;95.66;99175.40;104511;1313;25972;-26
2021/12/07 08:37:17;;;;;;;130.40;32.30;;;;;;;-1.20;95.92;99180.36;104652;1313;23675;-29
2021/12/07 08:39:42;;;;;;;93.40;28.10;;;;;;;-1.15;95.57;99179.01;104418;1312;24129;-30
2021/12/07 08:42:09;;;;;;;69.90;24.90;;;;;;;-1.19;94.45;99182.89;104481;1312;22462;-26
2021/12/07 08:44:34;;;;;;;86.50;29.20;;;;;;;-1.15;95.04;99180.64;104532;1311;24120;-26
2021/12/07 08:47:03;;;;;;;85.50;29.80;;;;;;;-1.14;95.64;99185.29;104498;1312;24144;-25
2021/12/07 08:49:29;;;;;;;123.30;33.40;;;;;;;-1.11;95.85;99190.34;104419;1311;22549;-25
2021/12/07 08:51:55;;;;;;;92.00;30.10;;;;;;;-1.03;95.68;99192.41;104234;1310;22472;-29
2021/12/07 09:01:48;;;;;;;75.80;24.80;;;;;;;-0.88;93.21;99197.53;104343;1313;24280;-26
2021/12/07 09:04:17;;;;;;;58.60;19.10;;;;;;;-0.87;92.54;99200.05;104301;1312;24144;-30
2021/12/07 09:06:44;;;;;;;60.10;21.10;;;;;;;-0.91;92.05;99201.14;104562;1311;22587;-26
2021/12/07 09:09:11;;;;;;;61.90;26.50;;;;;;;-0.82;93.34;99197.73;104567;1312;24285;-26
2021/12/07 09:11:38;;;;;;;56.30;21.30;;;;;;;-0.86;93.65;99198.27;104643;1312;24112;-27
2021/12/07 09:14:04;;;;;;;65.20;24.30;;;;;;;-0.93;93.95;99197.82;104269;1311;22474;-26
2021/12/07 09:16:29;;;;;;;88.70;31.10;;;;;;;-1.00;93.85;99200.80;104563;1311;22562;-29
2021/12/07 09:18:55;;;;;;;85.60;30.20;;;;;;;-1.08;93.38;99199.67;104555;1313;22443;-26
2021/12/07 09:21:21;;;;;;;96.70;33.30;;;;;;;-1.09;93.41;99205.08;104467;1308;22477;-27
2021/12/07 09:23:48;;;;;;;81.30;30.40;;;;;;;-1.05;93.31;99198.81;104588;1313;22563;-31
2021/12/07 09:26:15;;;;;;;104.30;37.50;;;;;;;-1.11;92.72;99197.16;104474;1311;24156;-26
2021/12/07 09:28:41;;;;;;;87.90;28.10;;;;;;;-1.17;92.58;99195.23;104585;1311;24277;-31
2021/12/07 09:31:08;;;;;;;98.90;32.90;;;;;;;-0.99;92.75;99197.21;104565;1312;22469;-31
2021/12/07 09:33:33;;;;;;;65.80;25.60;;;;;;;-1.02;92.16;99195.00;104628;1312;22456;-26
2021/12/07 09:35:59;;;;;;;61.80;25.60;;;;;;;-0.99;92.12;99195.83;104590;1313;24120;-27
2021/12/07 09:38:26;;;;;;;53.00;22.90;;;;;;;-1.02;91.12;99193.08;104617;1312;24170;-31
2021/12/07 09:40:53;;;;;;;56.60;21.50;;;;;;;-1.11;91.37;99194.85;104354;1313;22464;-26
2021/12/07 09:43:19;;;;;;;56.00;20.90;;;;;;;-1.02;91.63;99194.66;104410;1313;24251;-26
2021/12/07 09:45:44;;;;;;;43.90;20.50;;;;;;;-1.03;90.78;99191.36;104440;1313;22456;-26
2021/12/07 09:48:11;;;;;;;48.00;20.10;;;;;;;-1.08;90.61;99187.95;104577;1311;24265;-26
2021/12/07 09:50:38;;;;;;;51.00;19.60;;;;;;;-1.15;90.99;99192.23;104115;1312;22460;-30
2021/12/07 09:53:07;;;;;;;44.90;19.60;;;;;;;-1.12;91.10;99190.91;104295;1313;24159;-27
2021/12/07 09:55:34;;;;;;;54.00;22.30;;;;;;;-1.11;90.85;99189.09;104397;1311;24268;-31
2021/12/07 09:58:00;;;;;;;84.60;31.00;;;;;;;-1.06;91.65;99188.85;104186;1313;24203;-26
2021/12/07 10:00:26;;;;;;;80.80;25.00;;;;;;;-0.94;91.91;99186.21;104615;1312;22760;-26
2021/12/07 10:02:53;;;;;;;58.20;20.70;;;;;;;-0.74;91.50;99178.76;104534;1311;22453;-31
2021/12/07 10:05:19;;;;;;;48.00;22.30;;;;;;;-0.69;90.51;99168.46;104243;1313;22622;-30
2021/12/07 10:07:46;;;;;;;57.20;21.40;;;;;;;-0.76;89.81;99164.70;104495;1312;24144;-31
2021/12/07 10:10:18;;;;;;;50.60;21.50;;;;;;;-0.79;90.50;99160.77;104638;1311;22725;-30
2021/12/07 10:12:44;;;;;;;57.40;24.90;;;;;;;-0.76;89.46;99153.23;104603;1311;22719;-26
2021/12/07 10:15:11;;;;;;;65.00;23.50;;;;;;;-0.75;89.79;99145.11;104473;1308;24293;-31
2021/12/07 10:17:37;;;;;;;58.50;24.30;;;;;;;-0.74;89.52;99140.36;104484;1310;22722;-31
2021/12/07 10:20:25;;;;;;;53.00;21.90;;;;;;;-0.76;89.86;99139.69;104447;1312;22473;-31
2021/12/07 10:22:51;;;;;;;50.90;22.10;;;;;;;-0.77;89.52;99135.39;104531;1312;24258;-31
2021/12/07 10:25:24;;;;;;;57.90;25.00;;;;;;;-0.79;89.85;99137.70;104614;1313;24212;-30
2021/12/07 10:27:49;;;;;;;58.30;22.40;;;;;;;-0.72;88.88;99137.29;104610;1312;22442;-30
2021/12/07 10:30:18;;;;;;;52.40;23.60;;;;;;;-0.68;88.66;99133.02;104565;1312;22718;-30
2021/12/07 10:32:51;;;;;;;54.60;21.30;;;;;;;-0.82;89.39;99130.73;104534;1311;22545;-26
2021/12/07 10:35:24;;;;;;;43.80;18.80;;;;;;;-0.83;90.23;99129.63;104560;1311;23794;-27
2021/12/07 10:37:56;;;;;;;59.70;20.70;;;;;;;-0.58;90.98;99135.84;104622;1312;25943;-31
2021/12/07 10:40:23;;;;;;;54.90;25.60;;;;;;;-0.45;90.63;99137.61;104597;1313;22456;-30
2021/12/07 10:42:49;;;;;;;47.00;21.60;;;;;;;-0.42;91.04;99138.05;104428;1312;24222;-31
2021/12/07 10:45:16;;;;;;;52.30;20.50;;;;;;;-0.44;89.23;99140.84;104592;1312;22584;-26
2021/12/07 10:47:41;;;;;;;79.60;29.00;;;;;;;-0.53;89.92;99142.71;104562;1311;22778;-31
2021/12/07 10:50:09;;;;;;;57.60;21.70;;;;;;;-0.46;90.22;99145.72;104649;1313;22887;-26
2021/12/07 10:52:38;;;;;;;50.10;20.30;;;;;;;-0.44;89.39;99141.23;104701;1312;24258;-26
2021/12/07 10:55:09;;;;;;;70.00;29.90;;;;;;;-0.56;89.16;99147.17;104629;1313;22466;-26
2021/12/07 10:57:42;;;;;;;70.80;28.30;;;;;;;-0.57;90.16;99140.20;104757;1311;22722;-31
2021/12/07 11:00:10;;;;;;;67.20;23.90;;;;;;;-0.50;90.02;99138.91;104523;1313;24263;-31
2021/12/07 11:02:37;;;;;;;56.40;21.80;;;;;;;-0.45;89.87;99139.71;104735;1311;24293;-26
2021/12/07 11:05:06;;;;;;;46.20;19.60;;;;;;;-0.33;90.56;99140.80;104686;1312;22637;-31
2021/12/07 11:07:32;;;;;;;40.90;18.10;;;;;;;-0.11;92.07;99148.71;104672;1313;23739;-31
2021/12/07 11:12:34;;;;;;;60.00;21.50;;;;;;;0.36;90.21;99139.75;104529;1312;24132;-31
2021/12/07 11:15:01;;;;;;;53.50;21.30;;;;;;;0.75;91.15;99135.48;104302;1313;22832;-27
2021/12/07 11:17:29;;;;;;;53.50;23.70;;;;;;;1.17;89.93;99137.63;104738;1311;24317;-31
2021/12/07 11:19:55;;;;;;;65.10;24.90;;;;;;;1.38;88.88;99137.12;104964;1311;24150;-31
2021/12/07 11:22:24;;;;;;;51.10;23.20;;;;;;;1.50;88.91;99134.04;104758;1312;24274;-23
2021/12/07 11:24:52;;;;;;;51.90;21.40;;;;;;;1.41;86.86;99140.17;104676;1312;24267;-30
2021/12/07 11:29:57;;;;;;;44.10;20.80;;;;;;;1.67;88.07;99141.39;104651;1305;24178;-25
2021/12/07 11:32:23;;;;;;;95.70;31.20;;;;;;;1.71;87.79;99144.19;104705;1311;22722;-31
2021/12/07 11:34:49;;;;;;;77.90;28.70;;;;;;;1.70;87.94;99145.91;104484;1311;22478;-25
2021/12/07 11:37:15;;;;;;;62.60;25.60;;;;;;;1.71;87.95;99153.21;104454;1307;24350;-25
2021/12/07 11:39:49;;;;;;;96.10;29.20;;;;;;;1.59;86.15;99152.34;104360;1312;22440;-30
2021/12/07 11:42:20;;;;;;;85.40;27.20;;;;;;;1.61;86.96;99155.67;104550;1312;24062;-31
2021/12/07 11:44:50;;;;;;;66.20;22.80;;;;;;;1.68;87.61;99155.98;104688;1313;24159;-30
2021/12/07 11:47:23;;;;;;;37.70;17.80;;;;;;;1.66;86.28;99157.91;104233;1311;24268;-30
2021/12/07 11:49:49;;;;;;;46.70;20.70;;;;;;;1.63;86.33;99161.21;104407;1312;24279;-25
2021/12/07 11:52:15;;;;;;;44.20;17.20;;;;;;;1.61;86.39;99160.82;104244;1312;24170;-31
2021/12/07 11:54:41;;;;;;;42.10;18.60;;;;;;;1.53;86.21;99160.02;104716;1313;22726;-25
2021/12/07 11:57:11;;;;;;;35.30;16.70;;;;;;;1.43;87.44;99155.83;104668;1310;22463;-30
2021/12/07 11:59:37;;;;;;;38.40;16.40;;;;;;;1.21;87.50;99160.90;104626;1311;23872;-30
2021/12/07 12:02:03;;;;;;;44.80;17.40;;;;;;;1.14;88.13;99154.45;104984;1312;22557;-25
2021/12/07 12:04:28;;;;;;;50.30;18.60;;;;;;;1.03;87.17;99154.77;105008;1311;22523;-25
2021/12/07 12:06:56;;;;;;;51.20;19.10;;;;;;;0.96;87.98;99159.38;104775;1312;22765;-29
2021/12/07 12:09:23;;;;;;;62.60;26.30;;;;;;;0.89;88.19;99164.05;104483;1313;22579;-26
2021/12/07 12:11:53;;;;;;;91.60;35.00;;;;;;;0.91;88.67;99165.36;104809;1312;24141;-25
2021/12/07 12:14:29;;;;;;;64.90;21.00;;;;;;;0.96;89.38;99168.31;104714;1309;24187;-25
2021/12/07 12:16:56;;;;;;;53.10;20.30;;;;;;;0.90;88.40;99177.67;104700;1313;22829;-26
2021/12/07 12:19:31;;;;;;;49.40;23.50;;;;;;;0.71;87.63;99178.65;105011;1311;22469;-31
2021/12/07 12:22:00;;;;;;;42.30;19.20;;;;;;;0.67;88.71;99177.26;104952;1312;22473;-31
2021/12/07 12:24:32;;;;;;;95.90;34.30;;;;;;;0.48;88.26;99177.45;104944;1312;24148;-31
2021/12/07 12:27:05;;;;;;;47.40;19.50;;;;;;;0.47;89.25;99177.90;104763;1313;22943;-31
2021/12/07 12:29:31;;;;;;;38.70;20.10;;;;;;;0.41;88.27;99172.40;104867;1311;22534;-26
2021/12/07 12:31:58;;;;;;;56.20;25.80;;;;;;;0.23;88.35;99171.96;104790;1310;22736;-30
2021/12/07 12:34:30;;;;;;;67.50;25.20;;;;;;;0.12;88.71;99174.66;104728;1307;24218;-26
2021/12/07 12:36:56;;;;;;;47.70;21.90;;;;;;;0.08;89.36;99182.27;104893;1311;22715;-31
2021/12/07 12:39:39;;;;;;;50.20;22.90;;;;;;;0.15;89.84;99184.76;104811;1311;23162;-26
2021/12/07 12:42:05;;;;;;;74.50;30.80;;;;;;;0.19;90.01;99186.85;104701;1310;24173;-31
2021/12/07 12:44:34;;;;;;;86.70;33.40;;;;;;;0.09;89.90;99182.33;104390;1311;22705;-26
2021/12/07 12:47:00;;;;;;;79.50;29.20;;;;;;;-0.04;88.64;99175.23;104665;1312;22466;-26
2021/12/07 12:49:36;;;;;;;108.90;42.20;;;;;;;-0.28;88.65;99173.57;104729;1311;24232;-30
2021/12/07 12:52:03;;;;;;;84.90;33.60;;;;;;;-0.43;88.74;99176.43;104752;1311;24367;-26
2021/12/07 12:54:39;;;;;;;54.30;24.40;;;;;;;-0.39;89.83;99180.51;104895;1313;22925;-31
2021/12/07 12:57:09;;;;;;;74.60;23.80;;;;;;;-0.34;88.83;99187.98;104430;1313;22551;-26
2021/12/07 12:59:38;;;;;;;59.20;25.50;;;;;;;-0.51;89.97;99188.92;104748;1312;22581;-30
2021/12/07 13:02:04;;;;;;;44.80;21.90;;;;;;;-0.52;89.59;99192.17;104912;1312;24308;-26
2021/12/07 13:04:34;;;;;;;40.60;18.80;;;;;;;-0.61;88.73;99195.07;104621;1310;24286;-25
2021/12/07 13:07:23;;;;;;;57.40;27.10;;;;;;;-0.68;89.36;99195.68;104964;1312;24575;-26